sensor_id;sensor_type;location;lat;lon;timestamp;P1;durP1;ratioP1;P2;durP2;ratioP2
48963;SDS011;34776;48.180;16.420;2022-09-30T00:01:26;4.82;;;4.15;;
48963;SDS011;34776;48.180;16.420;2022-09-30T00:03:53;5.07;;;3.70;;
48963;SDS011;34776;48.180;16.420;2022-09-30T00:06:20;4.88;;;4.20;;
48963;SDS011;34776;48.180;16.420;2022-09-30T00:08:48;3.70;;;3.33;;
48963;SDS011;34776;48.180;16.420;2022-09-30T00:11:14;5.45;;;4.30;;
48963;SDS011;34776;48.180;16.420;2022-09-30T00:13:45;5.32;;;4.00;;
48963;SDS011;34776;48.180;16.420;2022-09-30T00:16:14;4.85;;;4.30;;
48963;SDS011;34776;48.180;16.420;2022-09-30T00:18:42;8.65;;;4.40;;
48963;SDS011;34776;48.180;16.420;2022-09-30T00:21:08;6.07;;;4.53;;
48963;SDS011;34776;48.180;16.420;2022-09-30T00:23:35;6.28;;;3.95;;
48963;SDS011;34776;48.180;16.420;2022-09-30T00:26:03;5.22;;;4.28;;
48963;SDS011;34776;48.180;16.420;2022-09-30T00:28:31;5.65;;;4.20;;
48963;SDS011;34776;48.180;16.420;2022-09-30T00:31:01;8.25;;;4.93;;
48963;SDS011;34776;48.180;16.420;2022-09-30T00:33:29;6.18;;;3.90;;
48963;SDS011;34776;48.180;16.420;2022-09-30T00:35:54;6.43;;;4.32;;
48963;SDS011;34776;48.180;16.420;2022-09-30T00:38:20;6.07;;;4.32;;
48963;SDS011;34776;48.180;16.420;2022-09-30T00:40:45;5.93;;;4.10;;
48963;SDS011;34776;48.180;16.420;2022-09-30T00:43:18;4.53;;;4.07;;
48963;SDS011;34776;48.180;16.420;2022-09-30T00:46:02;4.18;;;3.58;;
48963;SDS011;34776;48.180;16.420;2022-09-30T00:48:37;4.53;;;3.97;;
48963;SDS011;34776;48.180;16.420;2022-09-30T00:51:03;4.22;;;3.63;;
48963;SDS011;34776;48.180;16.420;2022-09-30T00:53:35;6.22;;;4.00;;
48963;SDS011;34776;48.180;16.420;2022-09-30T00:56:10;6.35;;;3.67;;
48963;SDS011;34776;48.180;16.420;2022-09-30T00:58:43;4.22;;;3.75;;
48963;SDS011;34776;48.180;16.420;2022-09-30T01:01:11;5.78;;;4.50;;
48963;SDS011;34776;48.180;16.420;2022-09-30T01:03:40;5.72;;;3.50;;
48963;SDS011;34776;48.180;16.420;2022-09-30T01:06:08;4.65;;;3.60;;
48963;SDS011;34776;48.180;16.420;2022-09-30T01:08:35;6.40;;;4.30;;
48963;SDS011;34776;48.180;16.420;2022-09-30T01:11:03;5.70;;;3.97;;
48963;SDS011;34776;48.180;16.420;2022-09-30T01:13:29;4.93;;;3.72;;
48963;SDS011;34776;48.180;16.420;2022-09-30T01:16:00;6.60;;;4.93;;
48963;SDS011;34776;48.180;16.420;2022-09-30T01:18:36;6.40;;;4.18;;
48963;SDS011;34776;48.180;16.420;2022-09-30T01:26:48;5.13;;;3.20;;
48963;SDS011;34776;48.180;16.420;2022-09-30T01:37:17;4.15;;;3.75;;
48963;SDS011;34776;48.180;16.420;2022-09-30T01:40:11;5.38;;;3.75;;
48963;SDS011;34776;48.180;16.420;2022-09-30T01:45:24;5.70;;;4.90;;
48963;SDS011;34776;48.180;16.420;2022-09-30T01:47:56;6.22;;;4.75;;
48963;SDS011;34776;48.180;16.420;2022-09-30T01:58:52;4.78;;;3.83;;
48963;SDS011;34776;48.180;16.420;2022-09-30T02:01:39;3.90;;;3.50;;
48963;SDS011;34776;48.180;16.420;2022-09-30T02:04:13;4.70;;;3.80;;
48963;SDS011;34776;48.180;16.420;2022-09-30T02:06:44;7.65;;;4.03;;
48963;SDS011;34776;48.180;16.420;2022-09-30T02:09:14;4.20;;;3.80;;
48963;SDS011;34776;48.180;16.420;2022-09-30T02:11:46;4.13;;;3.60;;
48963;SDS011;34776;48.180;16.420;2022-09-30T02:14:16;4.30;;;3.90;;
48963;SDS011;34776;48.180;16.420;2022-09-30T02:16:48;5.10;;;4.30;;
48963;SDS011;34776;48.180;16.420;2022-09-30T02:19:21;6.50;;;4.57;;
48963;SDS011;34776;48.180;16.420;2022-09-30T02:25:05;7.75;;;4.50;;
48963;SDS011;34776;48.180;16.420;2022-09-30T02:27:39;6.32;;;4.80;;
48963;SDS011;34776;48.180;16.420;2022-09-30T02:30:10;6.03;;;5.00;;
48963;SDS011;34776;48.180;16.420;2022-09-30T02:32:42;8.45;;;4.72;;
48963;SDS011;34776;48.180;16.420;2022-09-30T02:35:23;5.50;;;5.00;;
48963;SDS011;34776;48.180;16.420;2022-09-30T02:37:58;5.38;;;4.88;;
48963;SDS011;34776;48.180;16.420;2022-09-30T02:43:22;5.32;;;4.82;;
48963;SDS011;34776;48.180;16.420;2022-09-30T02:45:50;5.47;;;4.97;;
48963;SDS011;34776;48.180;16.420;2022-09-30T02:56:47;7.03;;;5.50;;
48963;SDS011;34776;48.180;16.420;2022-09-30T02:59:22;5.70;;;5.20;;
48963;SDS011;34776;48.180;16.420;2022-09-30T03:01:50;6.95;;;6.00;;
48963;SDS011;34776;48.180;16.420;2022-09-30T03:04:18;6.85;;;6.15;;
48963;SDS011;34776;48.180;16.420;2022-09-30T03:06:48;7.03;;;6.13;;
48963;SDS011;34776;48.180;16.420;2022-09-30T03:09:14;9.35;;;6.47;;
48963;SDS011;34776;48.180;16.420;2022-09-30T03:11:39;11.27;;;6.50;;
48963;SDS011;34776;48.180;16.420;2022-09-30T03:14:22;11.70;;;7.25;;
48963;SDS011;34776;48.180;16.420;2022-09-30T03:23:18;8.50;;;7.60;;
48963;SDS011;34776;48.180;16.420;2022-09-30T03:25:59;9.13;;;7.93;;
48963;SDS011;34776;48.180;16.420;2022-09-30T03:28:51;10.13;;;7.93;;
48963;SDS011;34776;48.180;16.420;2022-09-30T03:34:01;9.82;;;7.38;;
48963;SDS011;34776;48.180;16.420;2022-09-30T03:36:40;7.32;;;6.63;;
48963;SDS011;34776;48.180;16.420;2022-09-30T03:45:11;11.05;;;8.00;;
48963;SDS011;34776;48.180;16.420;2022-09-30T03:48:04;12.50;;;8.13;;
48963;SDS011;34776;48.180;16.420;2022-09-30T03:50:33;10.10;;;7.90;;
48963;SDS011;34776;48.180;16.420;2022-09-30T03:53:01;11.40;;;8.65;;
48963;SDS011;34776;48.180;16.420;2022-09-30T03:55:27;8.98;;;8.07;;
48963;SDS011;34776;48.180;16.420;2022-09-30T03:57:53;9.65;;;8.05;;
48963;SDS011;34776;48.180;16.420;2022-09-30T04:00:19;11.70;;;8.20;;
48963;SDS011;34776;48.180;16.420;2022-09-30T04:02:44;9.55;;;8.25;;
48963;SDS011;34776;48.180;16.420;2022-09-30T04:05:10;10.25;;;8.25;;
48963;SDS011;34776;48.180;16.420;2022-09-30T04:07:36;9.55;;;8.55;;
48963;SDS011;34776;48.180;16.420;2022-09-30T04:10:01;10.70;;;8.50;;
48963;SDS011;34776;48.180;16.420;2022-09-30T04:12:27;13.85;;;9.02;;
48963;SDS011;34776;48.180;16.420;2022-09-30T04:14:53;10.68;;;9.07;;
48963;SDS011;34776;48.180;16.420;2022-09-30T04:17:18;9.40;;;8.35;;
48963;SDS011;34776;48.180;16.420;2022-09-30T04:19:43;10.55;;;9.05;;
48963;SDS011;34776;48.180;16.420;2022-09-30T04:22:09;11.50;;;9.20;;
48963;SDS011;34776;48.180;16.420;2022-09-30T04:24:34;10.93;;;9.63;;
48963;SDS011;34776;48.180;16.420;2022-09-30T04:27:00;13.60;;;9.77;;
48963;SDS011;34776;48.180;16.420;2022-09-30T04:29:26;12.00;;;9.27;;
48963;SDS011;34776;48.180;16.420;2022-09-30T04:31:51;10.45;;;8.70;;
48963;SDS011;34776;48.180;16.420;2022-09-30T04:34:17;13.07;;;11.38;;
48963;SDS011;34776;48.180;16.420;2022-09-30T04:36:42;11.18;;;9.35;;
48963;SDS011;34776;48.180;16.420;2022-09-30T04:39:08;14.13;;;9.82;;
48963;SDS011;34776;48.180;16.420;2022-09-30T04:41:33;14.82;;;10.00;;
48963;SDS011;34776;48.180;16.420;2022-09-30T04:43:58;16.10;;;12.00;;
48963;SDS011;34776;48.180;16.420;2022-09-30T04:46:29;14.32;;;11.35;;
48963;SDS011;34776;48.180;16.420;2022-09-30T04:48:55;13.98;;;10.73;;
48963;SDS011;34776;48.180;16.420;2022-09-30T04:51:21;11.00;;;9.48;;
48963;SDS011;34776;48.180;16.420;2022-09-30T04:53:46;14.63;;;11.52;;
48963;SDS011;34776;48.180;16.420;2022-09-30T04:56:12;12.85;;;11.45;;
48963;SDS011;34776;48.180;16.420;2022-09-30T04:58:40;12.60;;;10.10;;
48963;SDS011;34776;48.180;16.420;2022-09-30T05:01:07;11.68;;;9.88;;
48963;SDS011;34776;48.180;16.420;2022-09-30T05:03:38;15.55;;;11.25;;
48963;SDS011;34776;48.180;16.420;2022-09-30T05:06:05;11.43;;;9.77;;
48963;SDS011;34776;48.180;16.420;2022-09-30T05:08:31;12.38;;;9.85;;
48963;SDS011;34776;48.180;16.420;2022-09-30T05:10:59;14.52;;;11.50;;
48963;SDS011;34776;48.180;16.420;2022-09-30T05:13:33;19.38;;;12.15;;
48963;SDS011;34776;48.180;16.420;2022-09-30T05:16:00;12.25;;;10.73;;
48963;SDS011;34776;48.180;16.420;2022-09-30T05:18:26;14.88;;;9.52;;
48963;SDS011;34776;48.180;16.420;2022-09-30T05:20:52;14.80;;;10.88;;
48963;SDS011;34776;48.180;16.420;2022-09-30T05:23:19;11.93;;;10.65;;
48963;SDS011;34776;48.180;16.420;2022-09-30T05:25:45;12.55;;;10.57;;
48963;SDS011;34776;48.180;16.420;2022-09-30T05:28:11;16.08;;;11.73;;
48963;SDS011;34776;48.180;16.420;2022-09-30T05:30:37;12.90;;;9.68;;
48963;SDS011;34776;48.180;16.420;2022-09-30T05:33:03;14.93;;;12.20;;
48963;SDS011;34776;48.180;16.420;2022-09-30T05:35:29;18.52;;;13.93;;
48963;SDS011;34776;48.180;16.420;2022-09-30T05:37:54;15.25;;;12.00;;
48963;SDS011;34776;48.180;16.420;2022-09-30T05:40:20;17.23;;;11.80;;
48963;SDS011;34776;48.180;16.420;2022-09-30T05:42:45;16.55;;;10.25;;
48963;SDS011;34776;48.180;16.420;2022-09-30T05:45:11;15.05;;;10.07;;
48963;SDS011;34776;48.180;16.420;2022-09-30T05:47:37;15.65;;;11.25;;
48963;SDS011;34776;48.180;16.420;2022-09-30T05:50:03;15.48;;;10.52;;
48963;SDS011;34776;48.180;16.420;2022-09-30T05:52:29;32.80;;;9.70;;
48963;SDS011;34776;48.180;16.420;2022-09-30T05:54:54;16.10;;;9.60;;
48963;SDS011;34776;48.180;16.420;2022-09-30T05:57:23;19.25;;;10.45;;
48963;SDS011;34776;48.180;16.420;2022-09-30T05:59:49;18.75;;;9.32;;
48963;SDS011;34776;48.180;16.420;2022-09-30T06:02:14;12.40;;;9.10;;
48963;SDS011;34776;48.180;16.420;2022-09-30T06:04:40;13.77;;;9.07;;
48963;SDS011;34776;48.180;16.420;2022-09-30T06:07:05;11.20;;;9.70;;
48963;SDS011;34776;48.180;16.420;2022-09-30T06:09:31;13.88;;;10.05;;
48963;SDS011;34776;48.180;16.420;2022-09-30T06:11:56;16.80;;;12.77;;
48963;SDS011;34776;48.180;16.420;2022-09-30T06:14:23;14.88;;;11.27;;
48963;SDS011;34776;48.180;16.420;2022-09-30T06:16:49;14.73;;;11.15;;
48963;SDS011;34776;48.180;16.420;2022-09-30T06:19:14;12.82;;;9.98;;
48963;SDS011;34776;48.180;16.420;2022-09-30T06:21:39;11.70;;;9.15;;
48963;SDS011;34776;48.180;16.420;2022-09-30T06:24:05;11.52;;;9.73;;
48963;SDS011;34776;48.180;16.420;2022-09-30T06:26:32;10.30;;;8.95;;
48963;SDS011;34776;48.180;16.420;2022-09-30T06:28:58;10.32;;;8.75;;
48963;SDS011;34776;48.180;16.420;2022-09-30T06:31:23;13.48;;;8.30;;
48963;SDS011;34776;48.180;16.420;2022-09-30T06:33:50;8.55;;;7.20;;
48963;SDS011;34776;48.180;16.420;2022-09-30T06:36:17;10.52;;;7.68;;
48963;SDS011;34776;48.180;16.420;2022-09-30T06:38:42;10.15;;;6.65;;
48963;SDS011;34776;48.180;16.420;2022-09-30T06:41:07;7.00;;;6.00;;
48963;SDS011;34776;48.180;16.420;2022-09-30T06:43:33;14.30;;;6.35;;
48963;SDS011;34776;48.180;16.420;2022-09-30T06:45:59;14.38;;;6.63;;
48963;SDS011;34776;48.180;16.420;2022-09-30T06:48:25;19.88;;;6.97;;
48963;SDS011;34776;48.180;16.420;2022-09-30T06:50:56;11.15;;;7.07;;
48963;SDS011;34776;48.180;16.420;2022-09-30T06:53:22;9.57;;;5.22;;
48963;SDS011;34776;48.180;16.420;2022-09-30T06:55:47;7.63;;;4.60;;
48963;SDS011;34776;48.180;16.420;2022-09-30T06:58:13;5.20;;;3.90;;
48963;SDS011;34776;48.180;16.420;2022-09-30T07:00:39;13.25;;;3.92;;
48963;SDS011;34776;48.180;16.420;2022-09-30T07:03:05;4.32;;;3.20;;
48963;SDS011;34776;48.180;16.420;2022-09-30T07:05:34;4.25;;;3.53;;
48963;SDS011;34776;48.180;16.420;2022-09-30T07:08:00;5.10;;;3.42;;
48963;SDS011;34776;48.180;16.420;2022-09-30T07:10:25;5.13;;;3.53;;
48963;SDS011;34776;48.180;16.420;2022-09-30T07:12:51;16.08;;;13.13;;
48963;SDS011;34776;48.180;16.420;2022-09-30T07:15:17;6.10;;;4.82;;
48963;SDS011;34776;48.180;16.420;2022-09-30T07:17:53;5.28;;;4.68;;
48963;SDS011;34776;48.180;16.420;2022-09-30T07:20:20;6.50;;;4.55;;
48963;SDS011;34776;48.180;16.420;2022-09-30T07:22:46;4.90;;;4.40;;
48963;SDS011;34776;48.180;16.420;2022-09-30T07:25:12;5.75;;;4.93;;
48963;SDS011;34776;48.180;16.420;2022-09-30T07:27:38;8.82;;;5.28;;
48963;SDS011;34776;48.180;16.420;2022-09-30T07:30:05;5.30;;;4.45;;
48963;SDS011;34776;48.180;16.420;2022-09-30T07:32:31;7.93;;;5.00;;
48963;SDS011;34776;48.180;16.420;2022-09-30T07:34:56;8.27;;;5.60;;
48963;SDS011;34776;48.180;16.420;2022-09-30T07:37:22;7.55;;;5.78;;
48963;SDS011;34776;48.180;16.420;2022-09-30T07:39:49;7.80;;;6.07;;
48963;SDS011;34776;48.180;16.420;2022-09-30T07:42:15;11.02;;;6.78;;
48963;SDS011;34776;48.180;16.420;2022-09-30T07:44:45;7.43;;;5.85;;
48963;SDS011;34776;48.180;16.420;2022-09-30T07:47:12;7.32;;;6.35;;
48963;SDS011;34776;48.180;16.420;2022-09-30T07:49:39;8.98;;;6.43;;
48963;SDS011;34776;48.180;16.420;2022-09-30T07:52:06;10.55;;;7.00;;
48963;SDS011;34776;48.180;16.420;2022-09-30T07:54:32;13.13;;;10.43;;
48963;SDS011;34776;48.180;16.420;2022-09-30T07:56:58;12.02;;;9.02;;
48963;SDS011;34776;48.180;16.420;2022-09-30T07:59:25;18.77;;;12.85;;
48963;SDS011;34776;48.180;16.420;2022-09-30T08:01:52;14.65;;;11.38;;
48963;SDS011;34776;48.180;16.420;2022-09-30T08:04:18;52.08;;;14.50;;
48963;SDS011;34776;48.180;16.420;2022-09-30T08:06:45;8.65;;;7.78;;
48963;SDS011;34776;48.180;16.420;2022-09-30T08:09:14;11.75;;;9.25;;
48963;SDS011;34776;48.180;16.420;2022-09-30T08:11:41;9.65;;;7.85;;
48963;SDS011;34776;48.180;16.420;2022-09-30T08:14:07;25.40;;;14.35;;
48963;SDS011;34776;48.180;16.420;2022-09-30T08:16:37;15.82;;;11.10;;
48963;SDS011;34776;48.180;16.420;2022-09-30T08:19:02;10.20;;;8.52;;
48963;SDS011;34776;48.180;16.420;2022-09-30T08:21:29;15.50;;;11.25;;
48963;SDS011;34776;48.180;16.420;2022-09-30T08:23:54;15.68;;;10.52;;
48963;SDS011;34776;48.180;16.420;2022-09-30T08:26:20;26.75;;;15.98;;
48963;SDS011;34776;48.180;16.420;2022-09-30T08:28:45;12.57;;;10.02;;
48963;SDS011;34776;48.180;16.420;2022-09-30T08:31:13;12.15;;;9.50;;
48963;SDS011;34776;48.180;16.420;2022-09-30T08:33:46;18.83;;;11.25;;
48963;SDS011;34776;48.180;16.420;2022-09-30T08:36:13;10.57;;;9.30;;
48963;SDS011;34776;48.180;16.420;2022-09-30T08:38:40;15.70;;;11.13;;
48963;SDS011;34776;48.180;16.420;2022-09-30T08:46:54;13.10;;;10.50;;
48963;SDS011;34776;48.180;16.420;2022-09-30T08:49:38;13.15;;;9.98;;
48963;SDS011;34776;48.180;16.420;2022-09-30T08:52:10;11.52;;;9.65;;
48963;SDS011;34776;48.180;16.420;2022-09-30T08:54:41;13.55;;;8.90;;
48963;SDS011;34776;48.180;16.420;2022-09-30T08:57:11;15.13;;;9.60;;
48963;SDS011;34776;48.180;16.420;2022-09-30T08:59:37;16.67;;;11.98;;
48963;SDS011;34776;48.180;16.420;2022-09-30T09:02:14;13.35;;;10.13;;
48963;SDS011;34776;48.180;16.420;2022-09-30T09:04:44;11.68;;;8.20;;
48963;SDS011;34776;48.180;16.420;2022-09-30T09:12:38;8.80;;;7.70;;
48963;SDS011;34776;48.180;16.420;2022-09-30T09:15:28;8.10;;;7.38;;
48963;SDS011;34776;48.180;16.420;2022-09-30T09:23:36;9.27;;;6.47;;
48963;SDS011;34776;48.180;16.420;2022-09-30T09:26:02;9.55;;;7.28;;
48963;SDS011;34776;48.180;16.420;2022-09-30T09:31:01;7.93;;;7.13;;
48963;SDS011;34776;48.180;16.420;2022-09-30T09:33:29;7.72;;;6.97;;
48963;SDS011;34776;48.180;16.420;2022-09-30T09:39:08;6.20;;;5.60;;
48963;SDS011;34776;48.180;16.420;2022-09-30T09:47:12;10.05;;;6.97;;
48963;SDS011;34776;48.180;16.420;2022-09-30T09:49:40;23.05;;;15.27;;
48963;SDS011;34776;48.180;16.420;2022-09-30T09:52:26;18.35;;;16.45;;
48963;SDS011;34776;48.180;16.420;2022-09-30T09:54:55;8.30;;;7.50;;
48963;SDS011;34776;48.180;16.420;2022-09-30T09:57:25;8.43;;;5.93;;
48963;SDS011;34776;48.180;16.420;2022-09-30T09:59:57;7.43;;;5.43;;
48963;SDS011;34776;48.180;16.420;2022-09-30T10:02:26;7.25;;;5.40;;
48963;SDS011;34776;48.180;16.420;2022-09-30T10:04:53;8.63;;;5.40;;
48963;SDS011;34776;48.180;16.420;2022-09-30T10:07:29;12.20;;;5.30;;
48963;SDS011;34776;48.180;16.420;2022-09-30T10:12:41;7.68;;;5.80;;
48963;SDS011;34776;48.180;16.420;2022-09-30T10:15:18;7.53;;;5.38;;
48963;SDS011;34776;48.180;16.420;2022-09-30T10:17:50;7.03;;;5.97;;
48963;SDS011;34776;48.180;16.420;2022-09-30T10:23:16;8.77;;;5.30;;
48963;SDS011;34776;48.180;16.420;2022-09-30T10:25:54;7.20;;;5.78;;
48963;SDS011;34776;48.180;16.420;2022-09-30T10:28:59;6.95;;;5.70;;
48963;SDS011;34776;48.180;16.420;2022-09-30T10:31:30;5.75;;;4.90;;
48963;SDS011;34776;48.180;16.420;2022-09-30T10:36:41;7.38;;;5.60;;
48963;SDS011;34776;48.180;16.420;2022-09-30T10:42:17;7.53;;;5.63;;
48963;SDS011;34776;48.180;16.420;2022-09-30T10:44:52;6.32;;;5.25;;
48963;SDS011;34776;48.180;16.420;2022-09-30T10:47:20;5.25;;;4.60;;
48963;SDS011;34776;48.180;16.420;2022-09-30T10:49:59;8.02;;;6.80;;
48963;SDS011;34776;48.180;16.420;2022-09-30T10:53:13;6.82;;;6.13;;
48963;SDS011;34776;48.180;16.420;2022-09-30T10:55:31;7.85;;;7.03;;
48963;SDS011;34776;48.180;16.420;2022-09-30T11:00:46;6.22;;;5.63;;
48963;SDS011;34776;48.180;16.420;2022-09-30T11:03:17;5.75;;;5.25;;
48963;SDS011;34776;48.180;16.420;2022-09-30T11:05:48;6.53;;;5.93;;
48963;SDS011;34776;48.180;16.420;2022-09-30T11:10:59;7.68;;;6.40;;
48963;SDS011;34776;48.180;16.420;2022-09-30T11:13:45;6.40;;;5.40;;
48963;SDS011;34776;48.180;16.420;2022-09-30T11:16:36;7.65;;;6.90;;
48963;SDS011;34776;48.180;16.420;2022-09-30T11:19:27;8.00;;;6.47;;
48963;SDS011;34776;48.180;16.420;2022-09-30T11:22:00;7.55;;;6.75;;
48963;SDS011;34776;48.180;16.420;2022-09-30T11:24:44;7.55;;;6.75;;
48963;SDS011;34776;48.180;16.420;2022-09-30T11:27:17;8.02;;;7.20;;
48963;SDS011;34776;48.180;16.420;2022-09-30T11:32:28;10.20;;;5.10;;
48963;SDS011;34776;48.180;16.420;2022-09-30T11:40:34;7.72;;;5.78;;
48963;SDS011;34776;48.180;16.420;2022-09-30T11:51:19;8.68;;;5.13;;
48963;SDS011;34776;48.180;16.420;2022-09-30T11:56:46;6.00;;;5.40;;
48963;SDS011;34776;48.180;16.420;2022-09-30T11:59:20;8.18;;;5.82;;
48963;SDS011;34776;48.180;16.420;2022-09-30T12:01:51;5.13;;;4.40;;
48963;SDS011;34776;48.180;16.420;2022-09-30T12:04:29;5.70;;;4.63;;
48963;SDS011;34776;48.180;16.420;2022-09-30T12:07:09;7.90;;;4.28;;
48963;SDS011;34776;48.180;16.420;2022-09-30T12:09:42;6.75;;;5.10;;
48963;SDS011;34776;48.180;16.420;2022-09-30T12:12:22;5.32;;;4.82;;
48963;SDS011;34776;48.180;16.420;2022-09-30T12:17:23;6.75;;;4.13;;
48963;SDS011;34776;48.180;16.420;2022-09-30T12:19:50;6.80;;;4.18;;
48963;SDS011;34776;48.180;16.420;2022-09-30T12:22:29;5.18;;;3.90;;
48963;SDS011;34776;48.180;16.420;2022-09-30T12:25:01;6.32;;;3.72;;
48963;SDS011;34776;48.180;16.420;2022-09-30T12:30:11;4.47;;;3.75;;
48963;SDS011;34776;48.180;16.420;2022-09-30T12:36:12;5.68;;;3.65;;
48963;SDS011;34776;48.180;16.420;2022-09-30T12:47:09;2.40;;;2.20;;
48963;SDS011;34776;48.180;16.420;2022-09-30T12:49:41;10.25;;;2.72;;
48963;SDS011;34776;48.180;16.420;2022-09-30T12:52:13;3.47;;;2.15;;
48963;SDS011;34776;48.180;16.420;2022-09-30T12:54:42;4.30;;;3.03;;
48963;SDS011;34776;48.180;16.420;2022-09-30T12:57:16;4.78;;;2.65;;
48963;SDS011;34776;48.180;16.420;2022-09-30T12:59:51;3.28;;;2.15;;
48963;SDS011;34776;48.180;16.420;2022-09-30T13:02:28;3.97;;;2.30;;
48963;SDS011;34776;48.180;16.420;2022-09-30T13:05:05;3.05;;;1.92;;
48963;SDS011;34776;48.180;16.420;2022-09-30T13:10:28;2.30;;;2.10;;
48963;SDS011;34776;48.180;16.420;2022-09-30T13:21:11;3.28;;;1.70;;
48963;SDS011;34776;48.180;16.420;2022-09-30T13:28:46;2.60;;;1.88;;
48963;SDS011;34776;48.180;16.420;2022-09-30T13:31:16;1.73;;;1.63;;
48963;SDS011;34776;48.180;16.420;2022-09-30T13:36:26;1.75;;;1.65;;
48963;SDS011;34776;48.180;16.420;2022-09-30T13:41:49;2.22;;;2.03;;
48963;SDS011;34776;48.180;16.420;2022-09-30T13:44:30;3.08;;;1.83;;
48963;SDS011;34776;48.180;16.420;2022-09-30T13:46:58;2.10;;;1.90;;
48963;SDS011;34776;48.180;16.420;2022-09-30T13:49:51;2.63;;;2.03;;
48963;SDS011;34776;48.180;16.420;2022-09-30T13:52:25;2.58;;;1.73;;
48963;SDS011;34776;48.180;16.420;2022-09-30T13:54:56;1.85;;;1.65;;
48963;SDS011;34776;48.180;16.420;2022-09-30T13:57:31;2.50;;;2.22;;
48963;SDS011;34776;48.180;16.420;2022-09-30T14:00:10;2.97;;;2.33;;
48963;SDS011;34776;48.180;16.420;2022-09-30T14:05:44;2.17;;;1.98;;
48963;SDS011;34776;48.180;16.420;2022-09-30T14:21:53;4.25;;;1.90;;
48963;SDS011;34776;48.180;16.420;2022-09-30T14:24:25;2.00;;;1.55;;
48963;SDS011;34776;48.180;16.420;2022-09-30T14:27:39;3.33;;;1.73;;
48963;SDS011;34776;48.180;16.420;2022-09-30T14:32:30;2.55;;;1.50;;
48963;SDS011;34776;48.180;16.420;2022-09-30T14:34:58;1.50;;;1.40;;
48963;SDS011;34776;48.180;16.420;2022-09-30T14:37:40;4.32;;;1.73;;
48963;SDS011;34776;48.180;16.420;2022-09-30T14:40:09;1.95;;;1.67;;
48963;SDS011;34776;48.180;16.420;2022-09-30T14:42:40;1.70;;;1.60;;
48963;SDS011;34776;48.180;16.420;2022-09-30T14:45:12;1.45;;;1.35;;
48963;SDS011;34776;48.180;16.420;2022-09-30T14:47:43;2.13;;;1.92;;
48963;SDS011;34776;48.180;16.420;2022-09-30T14:50:21;2.17;;;2.00;;
48963;SDS011;34776;48.180;16.420;2022-09-30T14:52:55;1.83;;;1.73;;
48963;SDS011;34776;48.180;16.420;2022-09-30T14:55:32;2.15;;;1.95;;
48963;SDS011;34776;48.180;16.420;2022-09-30T15:01:02;2.90;;;1.77;;
48963;SDS011;34776;48.180;16.420;2022-09-30T15:03:34;1.85;;;1.60;;
48963;SDS011;34776;48.180;16.420;2022-09-30T15:06:03;2.22;;;1.95;;
48963;SDS011;34776;48.180;16.420;2022-09-30T15:08:30;2.13;;;1.73;;
48963;SDS011;34776;48.180;16.420;2022-09-30T15:10:56;2.72;;;1.80;;
48963;SDS011;34776;48.180;16.420;2022-09-30T15:13:23;1.63;;;1.52;;
48963;SDS011;34776;48.180;16.420;2022-09-30T15:15:51;3.92;;;1.70;;
48963;SDS011;34776;48.180;16.420;2022-09-30T15:18:23;2.60;;;1.70;;
48963;SDS011;34776;48.180;16.420;2022-09-30T15:20:49;1.83;;;1.73;;
48963;SDS011;34776;48.180;16.420;2022-09-30T15:23:23;4.43;;;1.92;;
48963;SDS011;34776;48.180;16.420;2022-09-30T15:25:51;5.82;;;2.00;;
48963;SDS011;34776;48.180;16.420;2022-09-30T15:28:17;5.82;;;1.85;;
48963;SDS011;34776;48.180;16.420;2022-09-30T15:30:43;1.70;;;1.60;;
48963;SDS011;34776;48.180;16.420;2022-09-30T15:33:15;1.90;;;1.77;;
48963;SDS011;34776;48.180;16.420;2022-09-30T15:35:43;3.80;;;1.90;;
48963;SDS011;34776;48.180;16.420;2022-09-30T15:38:14;2.40;;;2.20;;
48963;SDS011;34776;48.180;16.420;2022-09-30T15:40:45;3.38;;;1.90;;
48963;SDS011;34776;48.180;16.420;2022-09-30T15:43:33;3.38;;;1.70;;
48963;SDS011;34776;48.180;16.420;2022-09-30T15:48:47;4.28;;;2.03;;
48963;SDS011;34776;48.180;16.420;2022-09-30T15:53:52;2.05;;;1.88;;
48963;SDS011;34776;48.180;16.420;2022-09-30T15:56:25;4.55;;;1.90;;
48963;SDS011;34776;48.180;16.420;2022-09-30T15:59:11;2.05;;;1.60;;
48963;SDS011;34776;48.180;16.420;2022-09-30T16:01:39;1.70;;;1.60;;
48963;SDS011;34776;48.180;16.420;2022-09-30T16:04:09;4.18;;;2.00;;
48963;SDS011;34776;48.180;16.420;2022-09-30T16:09:05;1.73;;;1.55;;
48963;SDS011;34776;48.180;16.420;2022-09-30T16:11:43;2.10;;;1.90;;
48963;SDS011;34776;48.180;16.420;2022-09-30T16:14:17;2.30;;;2.10;;
48963;SDS011;34776;48.180;16.420;2022-09-30T16:16:49;3.28;;;2.92;;
48963;SDS011;34776;48.180;16.420;2022-09-30T16:19:17;3.33;;;2.60;;
48963;SDS011;34776;48.180;16.420;2022-09-30T16:21:44;4.75;;;2.63;;
48963;SDS011;34776;48.180;16.420;2022-09-30T16:26:48;5.25;;;3.08;;
48963;SDS011;34776;48.180;16.420;2022-09-30T16:29:14;3.08;;;2.42;;
48963;SDS011;34776;48.180;16.420;2022-09-30T16:31:41;3.92;;;2.17;;
48963;SDS011;34776;48.180;16.420;2022-09-30T16:34:18;3.85;;;2.20;;
48963;SDS011;34776;48.180;16.420;2022-09-30T16:36:45;2.25;;;2.05;;
48963;SDS011;34776;48.180;16.420;2022-09-30T16:39:11;2.58;;;2.13;;
48963;SDS011;34776;48.180;16.420;2022-09-30T16:41:39;2.90;;;2.35;;
48963;SDS011;34776;48.180;16.420;2022-09-30T16:44:05;2.63;;;1.92;;
48963;SDS011;34776;48.180;16.420;2022-09-30T16:46:31;2.53;;;2.20;;
48963;SDS011;34776;48.180;16.420;2022-09-30T16:49:18;2.25;;;2.05;;
48963;SDS011;34776;48.180;16.420;2022-09-30T16:51:43;3.80;;;2.20;;
48963;SDS011;34776;48.180;16.420;2022-09-30T16:54:09;2.05;;;1.85;;
48963;SDS011;34776;48.180;16.420;2022-09-30T16:56:36;3.95;;;2.65;;
48963;SDS011;34776;48.180;16.420;2022-09-30T16:59:02;7.78;;;6.90;;
48963;SDS011;34776;48.180;16.420;2022-09-30T17:01:28;4.43;;;3.83;;
48963;SDS011;34776;48.180;16.420;2022-09-30T17:03:55;4.65;;;3.13;;
48963;SDS011;34776;48.180;16.420;2022-09-30T17:06:26;3.53;;;3.17;;
48963;SDS011;34776;48.180;16.420;2022-09-30T17:08:53;3.28;;;2.72;;
48963;SDS011;34776;48.180;16.420;2022-09-30T17:11:19;3.53;;;3.17;;
48963;SDS011;34776;48.180;16.420;2022-09-30T17:13:50;5.30;;;3.33;;
48963;SDS011;34776;48.180;16.420;2022-09-30T17:16:16;4.10;;;3.35;;
48963;SDS011;34776;48.180;16.420;2022-09-30T17:18:41;4.07;;;2.92;;
48963;SDS011;34776;48.180;16.420;2022-09-30T17:21:07;4.90;;;2.88;;
48963;SDS011;34776;48.180;16.420;2022-09-30T17:23:32;4.82;;;3.38;;
48963;SDS011;34776;48.180;16.420;2022-09-30T17:25:58;4.38;;;3.10;;
48963;SDS011;34776;48.180;16.420;2022-09-30T17:28:23;3.45;;;2.72;;
48963;SDS011;34776;48.180;16.420;2022-09-30T17:30:49;4.47;;;3.33;;
48963;SDS011;34776;48.180;16.420;2022-09-30T17:33:15;3.47;;;2.72;;
48963;SDS011;34776;48.180;16.420;2022-09-30T17:35:41;6.45;;;3.15;;
48963;SDS011;34776;48.180;16.420;2022-09-30T17:38:07;2.88;;;2.58;;
48963;SDS011;34776;48.180;16.420;2022-09-30T17:40:34;3.78;;;3.08;;
48963;SDS011;34776;48.180;16.420;2022-09-30T17:43:18;3.30;;;3.00;;
48963;SDS011;34776;48.180;16.420;2022-09-30T17:45:44;3.42;;;3.00;;
48963;SDS011;34776;48.180;16.420;2022-09-30T17:48:11;5.60;;;3.25;;
48963;SDS011;34776;48.180;16.420;2022-09-30T17:50:41;3.90;;;3.40;;
48963;SDS011;34776;48.180;16.420;2022-09-30T17:53:09;3.28;;;2.80;;
48963;SDS011;34776;48.180;16.420;2022-09-30T17:55:37;4.07;;;3.50;;